Time;durP1;ratioP1;P1;durP2;ratioP2;P2;SDS_P1;SDS_P2;PMS_P1;PMS_P2;Temp;Humidity;BMP_temperature;BMP_pressure;BME280_temperature;BME280_humidity;BME280_pressure;Samples;Min_cycle;Max_cycle;Signal;HPM_P1;HPM_P2
2022/11/05 00:10:20;;;;;;;13.03;9.70;;;9.80;99.90;;;;;;5004078;28;20406;-81
2022/11/05 00:18:17;;;;;;;12.40;8.53;;;9.60;99.90;;;;;;5022774;28;20459;-81
2022/11/05 00:20:44;;;;;;;11.97;7.87;;;9.60;99.90;;;;;;5024093;28;20480;-80
2022/11/05 00:26:02;;;;;;;10.67;7.83;;;9.50;99.90;;;;;;4953155;28;20436;-81
2022/11/05 00:28:29;;;;;;;14.90;8.20;;;9.50;99.90;;;;;;5022275;28;20530;-80
2022/11/05 00:31:02;;;;;;;11.47;7.87;;;9.50;99.90;;;;;;5024084;28;20527;-81
2022/11/05 00:33:30;;;;;;;13.87;8.20;;;9.40;99.90;;;;;;5020214;28;20595;-78
2022/11/05 00:35:57;;;;;;;10.43;8.30;;;9.30;99.90;;;;;;5022759;28;20443;-80
2022/11/05 00:38:24;;;;;;;15.30;7.83;;;9.30;99.90;;;;;;5021321;28;20556;-78
2022/11/05 00:40:51;;;;;;;9.20;7.70;;;9.30;99.90;;;;;;5022264;28;20491;-79
2022/11/05 00:46:02;;;;;;;11.67;8.30;;;9.30;99.90;;;;;;5022311;28;20423;-78
2022/11/05 00:51:15;;;;;;;11.67;7.00;;;9.20;99.90;;;;;;5019933;28;20836;-79
2022/11/05 00:53:42;;;;;;;11.40;7.03;;;9.20;99.90;;;;;;5022064;28;20563;-79
2022/11/05 00:56:09;;;;;;;9.80;7.20;;;9.20;99.90;;;;;;5021736;28;20448;-80
2022/11/05 00:58:35;;;;;;;14.10;8.03;;;9.20;99.90;;;;;;5021028;28;20581;-80
2022/11/05 01:01:03;;;;;;;13.30;8.23;;;9.10;99.90;;;;;;5022440;28;20505;-80
2022/11/05 01:03:33;;;;;;;11.90;7.60;;;9.10;99.90;;;;;;5022451;28;20448;-79
2022/11/05 01:06:08;;;;;;;14.13;7.30;;;9.10;99.90;;;;;;5021101;28;20449;-79
2022/11/05 01:08:35;;;;;;;11.73;7.37;;;9.00;99.90;;;;;;5001382;28;20565;-79
2022/11/05 01:11:08;;;;;;;11.50;8.03;;;9.00;99.90;;;;;;5002379;28;20454;-79
2022/11/05 01:13:35;;;;;;;9.33;7.13;;;8.90;99.90;;;;;;5002971;28;20536;-80
2022/11/05 01:16:06;;;;;;;10.53;7.60;;;8.90;99.90;;;;;;5003283;28;20514;-80
2022/11/05 01:18:37;;;;;;;11.53;6.83;;;8.90;99.90;;;;;;5003229;28;20479;-79
2022/11/05 01:21:11;;;;;;;9.67;6.43;;;8.90;99.90;;;;;;5006563;28;20467;-80
2022/11/05 01:23:38;;;;;;;8.83;6.90;;;8.90;99.90;;;;;;5016349;28;21024;-79
2022/11/05 01:26:05;;;;;;;11.70;7.27;;;8.90;99.90;;;;;;5027264;28;20444;-79
2022/11/05 01:28:31;;;;;;;9.83;5.90;;;8.90;99.90;;;;;;5030349;28;20550;-79
2022/11/05 01:30:58;;;;;;;10.67;6.67;;;8.80;99.90;;;;;;5033158;28;20486;-79
2022/11/05 01:33:25;;;;;;;9.47;5.87;;;8.80;99.90;;;;;;5035272;28;20554;-80
2022/11/05 01:35:53;;;;;;;8.60;6.47;;;8.70;99.90;;;;;;5035515;28;20473;-79
2022/11/05 01:38:20;;;;;;;11.23;7.10;;;8.70;99.90;;;;;;5035160;28;20539;-78
2022/11/05 01:40:47;;;;;;;9.77;6.00;;;8.70;99.90;;;;;;5032819;28;20561;-80
2022/11/05 01:43:16;;;;;;;10.80;6.57;;;8.70;99.90;;;;;;5035862;28;20480;-80
2022/11/05 01:45:45;;;;;;;18.00;7.53;;;8.60;99.90;;;;;;5036566;28;20476;-77
2022/11/05 01:48:16;;;;;;;11.90;6.53;;;8.60;99.90;;;;;;5035341;28;21002;-78
2022/11/05 01:50:48;;;;;;;8.70;6.90;;;8.60;99.90;;;;;;5036360;28;20514;-79
2022/11/05 01:53:22;;;;;;;11.30;6.83;;;8.60;99.90;;;;;;5037393;28;20479;-80
2022/11/05 01:55:54;;;;;;;13.10;7.20;;;8.50;99.90;;;;;;5034944;28;20484;-79
2022/11/05 01:58:26;;;;;;;9.30;6.20;;;8.50;99.90;;;;;;5033090;28;20570;-79
2022/11/05 02:00:55;;;;;;;8.50;6.40;;;8.50;99.90;;;;;;5033298;28;20588;-78
2022/11/05 02:03:22;;;;;;;14.17;7.23;;;8.40;99.90;;;;;;5032473;28;20535;-79
2022/11/05 02:05:51;;;;;;;10.37;7.13;;;8.50;99.90;;;;;;5033774;28;20541;-79
2022/11/05 02:08:27;;;;;;;7.90;6.40;;;8.50;99.90;;;;;;5033604;28;20522;-78
2022/11/05 02:10:54;;;;;;;9.00;6.83;;;8.50;99.90;;;;;;5036850;28;20506;-78
2022/11/05 02:13:21;;;;;;;10.47;6.10;;;8.50;99.90;;;;;;5035400;28;20523;-78
2022/11/05 02:15:57;;;;;;;13.00;7.27;;;8.40;99.90;;;;;;5034855;28;20542;-79
2022/11/05 02:18:35;;;;;;;13.47;7.23;;;8.40;99.90;;;;;;5014669;28;20640;-79
2022/11/05 02:21:24;;;;;;;10.10;7.17;;;8.40;99.90;;;;;;5017306;28;20509;-79
2022/11/05 02:24:28;;;;;;;13.33;7.60;;;8.50;99.90;;;;;;5023325;28;20522;-79
2022/11/05 02:27:16;;;;;;;9.73;6.73;;;8.40;99.90;;;;;;5036680;28;20530;-80
2022/11/05 02:30:03;;;;;;;11.70;7.83;;;8.40;99.90;;;;;;5036372;28;20474;-77
2022/11/05 02:33:07;;;;;;;8.10;6.80;;;8.40;99.90;;;;;;5036019;28;20446;-77
2022/11/05 02:35:55;;;;;;;8.47;6.93;;;8.40;99.90;;;;;;5026255;28;21022;-80
2022/11/05 02:38:35;;;;;;;10.93;7.27;;;8.40;99.90;;;;;;5013649;28;20547;-80
2022/11/05 02:41:07;;;;;;;11.93;7.00;;;8.40;99.90;;;;;;5003414;28;20474;-79
2022/11/05 02:43:47;;;;;;;17.43;8.57;;;8.40;99.90;;;;;;5004332;28;20925;-80
2022/11/05 02:46:25;;;;;;;12.23;7.87;;;8.40;99.90;;;;;;5004787;28;20969;-79
2022/11/05 02:48:58;;;;;;;11.93;7.17;;;8.40;99.90;;;;;;5003343;28;20483;-80
2022/11/05 02:51:33;;;;;;;13.00;7.77;;;8.40;99.90;;;;;;5004336;28;20908;-79
2022/11/05 02:54:09;;;;;;;10.37;7.83;;;8.40;99.90;;;;;;5005188;28;21221;-81
2022/11/05 02:56:39;;;;;;;10.53;8.00;;;8.40;99.90;;;;;;5004954;28;20443;-80
2022/11/05 02:59:06;;;;;;;12.27;7.90;;;8.40;99.90;;;;;;5002195;28;20561;-79
2022/11/05 03:01:34;;;;;;;9.93;7.03;;;8.40;99.90;;;;;;5003021;28;20494;-79
2022/11/05 03:04:06;;;;;;;13.10;9.57;;;8.40;99.90;;;;;;5003540;28;20538;-80
2022/11/05 03:06:54;;;;;;;11.47;7.60;;;8.30;99.90;;;;;;5003202;28;20512;-80
2022/11/05 03:10:00;;;;;;;12.83;9.30;;;8.30;99.90;;;;;;5002156;28;20508;-78
2022/11/05 03:12:36;;;;;;;13.30;8.00;;;8.30;99.90;;;;;;4999657;28;20450;-80
2022/11/05 03:15:14;;;;;;;11.27;8.37;;;8.30;99.90;;;;;;5003650;28;20426;-80
2022/11/05 03:17:46;;;;;;;12.10;7.50;;;8.30;99.90;;;;;;5007389;28;21011;-78
2022/11/05 03:20:20;;;;;;;16.23;8.70;;;8.30;99.90;;;;;;5006748;28;20453;-80
2022/11/05 03:22:52;;;;;;;17.03;9.00;;;8.30;99.90;;;;;;5003345;28;20486;-81
2022/11/05 03:25:22;;;;;;;10.03;7.20;;;8.30;99.90;;;;;;5003625;28;20432;-78
2022/11/05 03:27:55;;;;;;;14.30;7.40;;;8.30;99.90;;;;;;5015412;28;20542;-80
2022/11/05 03:30:23;;;;;;;10.63;8.30;;;8.30;99.90;;;;;;5026299;28;20571;-80
2022/11/05 03:32:54;;;;;;;13.43;8.07;;;8.30;99.90;;;;;;5025380;28;20450;-80
2022/11/05 03:35:26;;;;;;;13.27;7.53;;;8.30;99.90;;;;;;5025979;28;20458;-81
2022/11/05 03:37:58;;;;;;;12.30;8.17;;;8.30;99.90;;;;;;5030475;28;20479;-80
2022/11/05 03:40:26;;;;;;;11.20;6.80;;;8.30;99.90;;;;;;5026542;28;20516;-81
2022/11/05 03:42:56;;;;;;;13.27;7.30;;;8.30;99.90;;;;;;5023367;28;20511;-80
2022/11/05 03:45:28;;;;;;;13.07;7.87;;;8.20;99.90;;;;;;5025908;28;20991;-80
2022/11/05 03:48:00;;;;;;;9.73;7.80;;;8.30;99.90;;;;;;5024476;28;20886;-80
2022/11/05 03:50:34;;;;;;;15.50;9.30;;;8.20;99.90;;;;;;5026109;28;20517;-81
2022/11/05 03:53:08;;;;;;;10.13;8.70;;;8.20;99.90;;;;;;5026909;28;20465;-80
2022/11/05 03:55:40;;;;;;;11.43;9.33;;;8.20;99.90;;;;;;5026819;28;20525;-80
2022/11/05 03:58:08;;;;;;;14.70;8.97;;;8.20;99.90;;;;;;5026073;28;20567;-80
2022/11/05 04:00:35;;;;;;;10.97;7.80;;;8.30;99.90;;;;;;5016227;28;20538;-80
2022/11/05 04:03:02;;;;;;;14.27;8.43;;;8.20;99.90;;;;;;5007117;28;21100;-81
2022/11/05 04:05:30;;;;;;;15.37;9.77;;;8.20;99.90;;;;;;5006661;28;20483;-80
2022/11/05 04:13:40;;;;;;;13.37;8.87;;;8.30;99.90;;;;;;4966811;29;20427;-81
2022/11/05 04:18:52;;;;;;;11.57;7.87;;;8.20;99.90;;;;;;5026292;28;20474;-81
2022/11/05 04:24:08;;;;;;;13.00;9.10;;;8.20;99.90;;;;;;5025382;28;20477;-80
2022/11/05 04:26:36;;;;;;;12.60;9.30;;;8.20;99.90;;;;;;5023087;28;20482;-80
2022/11/05 04:31:48;;;;;;;12.30;8.50;;;8.30;99.90;;;;;;5022309;28;20426;-80
2022/11/05 04:34:17;;;;;;;12.17;8.47;;;8.30;99.90;;;;;;5009441;28;20467;-80
2022/11/05 04:36:45;;;;;;;12.67;8.30;;;8.30;99.90;;;;;;5002513;28;20531;-80
2022/11/05 04:39:12;;;;;;;12.37;9.60;;;8.20;99.90;;;;;;5001280;28;20475;-80
2022/11/05 04:41:39;;;;;;;12.90;9.07;;;8.20;99.90;;;;;;5003906;28;20562;-79
2022/11/05 04:44:06;;;;;;;9.77;8.77;;;8.20;99.90;;;;;;5003181;28;20470;-79
2022/11/05 04:46:32;;;;;;;13.10;9.17;;;8.20;99.90;;;;;;5004177;28;20469;-81
2022/11/05 04:48:59;;;;;;;12.10;8.77;;;8.20;99.90;;;;;;5003323;28;20463;-78
2022/11/05 04:51:26;;;;;;;13.13;8.80;;;8.20;99.90;;;;;;5005191;28;20546;-80
2022/11/05 04:53:54;;;;;;;13.37;9.17;;;8.20;99.90;;;;;;5003667;28;20498;-79
2022/11/05 04:56:23;;;;;;;15.83;9.53;;;8.20;99.90;;;;;;5003434;28;20486;-80
2022/11/05 04:58:50;;;;;;;17.63;11.10;;;8.10;99.90;;;;;;5045994;22;21009;-77
2022/11/05 05:01:19;;;;;;;12.30;8.93;;;8.10;99.90;;;;;;5073121;28;20445;-78
2022/11/05 05:03:47;;;;;;;10.50;8.83;;;8.10;99.90;;;;;;5049107;28;20453;-78
2022/11/05 05:06:14;;;;;;;12.50;9.50;;;8.10;99.90;;;;;;5057221;28;20552;-77
2022/11/05 05:08:41;;;;;;;13.00;9.70;;;8.10;99.90;;;;;;5057671;28;20473;-77
2022/11/05 05:11:11;;;;;;;12.17;9.43;;;8.10;99.90;;;;;;5057890;28;20531;-78
2022/11/05 05:13:38;;;;;;;12.73;10.70;;;8.10;99.90;;;;;;5057728;28;20947;-77
2022/11/05 05:16:06;;;;;;;12.87;8.97;;;8.10;99.90;;;;;;5071674;28;20443;-77
2022/11/05 05:18:33;;;;;;;13.93;8.60;;;8.00;99.90;;;;;;5058851;28;20451;-77
2022/11/05 05:23:46;;;;;;;11.37;9.47;;;8.10;99.90;;;;;;5038197;28;20472;-78
2022/11/05 05:26:14;;;;;;;9.23;7.67;;;8.00;99.90;;;;;;5059187;28;20508;-77
2022/11/05 05:28:41;;;;;;;11.17;8.60;;;8.00;99.90;;;;;;5057122;28;20999;-78
2022/11/05 05:31:08;;;;;;;12.43;7.40;;;8.00;99.90;;;;;;5058060;28;20449;-77
2022/11/05 05:33:34;;;;;;;14.47;8.50;;;8.00;99.90;;;;;;5059257;28;20814;-77
2022/11/05 05:36:01;;;;;;;12.63;9.20;;;8.00;99.90;;;;;;5059049;28;20514;-77
2022/11/05 05:38:29;;;;;;;11.13;8.37;;;8.00;99.90;;;;;;5057718;28;20870;-77
2022/11/05 05:40:58;;;;;;;12.87;7.57;;;7.90;99.90;;;;;;5057523;28;20458;-77
2022/11/05 05:43:28;;;;;;;14.80;9.10;;;7.90;99.90;;;;;;5058898;28;20999;-76
2022/11/05 05:45:56;;;;;;;9.73;8.33;;;7.90;99.90;;;;;;5058869;28;20539;-77
2022/11/05 05:48:22;;;;;;;15.57;9.53;;;7.90;99.90;;;;;;5059136;28;20467;-78
2022/11/05 05:50:49;;;;;;;9.47;7.63;;;7.90;99.90;;;;;;5057362;28;20513;-77
2022/11/05 05:53:16;;;;;;;10.97;8.20;;;7.90;99.90;;;;;;5058025;28;20450;-77
2022/11/05 05:55:43;;;;;;;9.57;7.13;;;7.90;99.90;;;;;;5058304;28;20458;-77
2022/11/05 05:58:10;;;;;;;9.40;7.87;;;7.80;99.90;;;;;;5055561;28;20448;-77
2022/11/05 06:00:38;;;;;;;11.40;9.17;;;7.80;99.90;;;;;;5057744;28;20483;-78
2022/11/05 06:03:05;;;;;;;12.57;8.80;;;7.80;99.90;;;;;;5055558;28;20550;-77
2022/11/05 06:05:32;;;;;;;13.40;7.10;;;7.80;99.90;;;;;;5054423;28;20452;-76
2022/11/05 06:07:59;;;;;;;10.37;7.90;;;7.80;99.90;;;;;;5056912;28;20450;-77
2022/11/05 06:10:25;;;;;;;9.50;8.03;;;7.80;99.90;;;;;;5058025;28;20938;-78
2022/11/05 06:12:52;;;;;;;11.47;7.57;;;7.90;99.90;;;;;;5058990;28;20519;-78
2022/11/05 06:15:19;;;;;;;9.80;7.37;;;7.80;99.90;;;;;;5060315;28;20529;-77
2022/11/05 06:17:48;;;;;;;9.97;7.63;;;7.80;99.90;;;;;;5061863;28;20462;-78
2022/11/05 06:20:14;;;;;;;9.60;7.67;;;7.80;99.90;;;;;;5061442;28;20472;-78
2022/11/05 06:22:41;;;;;;;13.73;8.77;;;7.80;99.90;;;;;;5063043;28;20483;-76
2022/11/05 06:25:09;;;;;;;10.10;8.00;;;7.80;99.90;;;;;;5061585;28;20535;-78
2022/11/05 06:27:36;;;;;;;11.90;8.17;;;7.80;99.90;;;;;;5062362;28;20521;-78
2022/11/05 06:30:04;;;;;;;14.70;8.20;;;7.80;99.90;;;;;;5059101;28;20940;-79
2022/11/05 06:32:31;;;;;;;13.03;9.20;;;7.70;99.90;;;;;;5042033;28;20512;-77
2022/11/05 06:34:59;;;;;;;10.80;9.20;;;7.60;99.90;;;;;;5052446;28;20558;-77
2022/11/05 06:37:26;;;;;;;11.93;8.27;;;7.70;99.90;;;;;;5063287;28;20547;-77
2022/11/05 06:39:55;;;;;;;14.33;10.60;;;7.70;99.90;;;;;;5061711;28;20474;-76
2022/11/05 06:42:23;;;;;;;12.00;9.63;;;7.70;99.90;;;;;;5067773;28;20495;-77
2022/11/05 06:44:50;;;;;;;12.67;9.27;;;7.80;99.90;;;;;;5069348;28;20480;-77
2022/11/05 06:47:17;;;;;;;12.20;9.47;;;7.80;99.90;;;;;;5068076;28;20508;-77
2022/11/05 06:49:45;;;;;;;13.50;8.73;;;7.80;99.90;;;;;;5067631;28;20546;-77
2022/11/05 06:52:15;;;;;;;11.67;9.70;;;7.80;99.90;;;;;;5055599;28;21030;-77
2022/11/05 06:54:42;;;;;;;11.43;9.80;;;7.80;99.90;;;;;;5053200;28;20444;-77
2022/11/05 06:57:10;;;;;;;12.63;9.80;;;7.80;99.90;;;;;;5042589;28;20452;-77
2022/11/05 06:59:37;;;;;;;12.90;10.23;;;7.80;99.90;;;;;;5044860;28;20481;-77
2022/11/05 07:02:04;;;;;;;13.20;9.30;;;7.90;99.90;;;;;;5054177;28;20455;-77
2022/11/05 07:04:31;;;;;;;15.23;11.40;;;8.00;99.90;;;;;;5048970;28;20448;-77
2022/11/05 07:06:59;;;;;;;16.80;12.73;;;8.00;99.90;;;;;;5034018;28;21001;-76
2022/11/05 07:09:28;;;;;;;12.20;10.10;;;8.00;99.90;;;;;;5033302;28;20487;-78
2022/11/05 07:11:55;;;;;;;13.87;10.43;;;8.00;99.90;;;;;;5052823;28;20455;-77
2022/11/05 07:14:22;;;;;;;14.60;10.20;;;8.00;99.90;;;;;;5044961;28;20454;-78
2022/11/05 07:16:49;;;;;;;15.57;11.90;;;8.00;99.90;;;;;;5034443;28;20491;-77
2022/11/05 07:19:15;;;;;;;13.80;10.47;;;7.90;99.90;;;;;;5045614;28;20974;-77
2022/11/05 07:21:42;;;;;;;16.83;12.70;;;8.00;99.90;;;;;;5054134;28;20462;-77
2022/11/05 07:24:09;;;;;;;16.90;11.73;;;8.00;99.90;;;;;;5048975;28;20480;-77
2022/11/05 07:26:37;;;;;;;15.70;11.60;;;8.00;99.90;;;;;;5038383;28;20462;-77
2022/11/05 07:29:04;;;;;;;21.77;13.60;;;8.00;99.90;;;;;;5033868;28;20474;-78
2022/11/05 07:31:31;;;;;;;16.60;12.13;;;7.90;99.90;;;;;;5033661;28;20458;-76
2022/11/05 07:33:58;;;;;;;15.40;12.60;;;8.00;99.90;;;;;;5047399;28;20836;-77
2022/11/05 07:36:25;;;;;;;17.83;13.13;;;7.90;99.90;;;;;;5045436;28;20968;-77
2022/11/05 07:38:52;;;;;;;20.20;13.13;;;8.10;99.90;;;;;;5051346;28;20490;-77
2022/11/05 07:41:19;;;;;;;15.37;12.63;;;8.10;99.90;;;;;;5054499;28;20443;-77
2022/11/05 07:43:47;;;;;;;22.40;14.20;;;8.20;99.90;;;;;;5061229;28;20517;-77
2022/11/05 07:46:14;;;;;;;17.70;12.83;;;8.20;99.90;;;;;;5052903;28;20532;-79
2022/11/05 07:48:41;;;;;;;21.13;14.07;;;8.30;99.90;;;;;;5053529;28;20864;-79
2022/11/05 07:51:08;;;;;;;19.80;13.90;;;8.30;99.90;;;;;;5059732;28;20544;-78
2022/11/05 07:53:34;;;;;;;21.03;14.13;;;8.30;99.90;;;;;;5053949;28;20440;-79
2022/11/05 07:56:01;;;;;;;22.77;16.07;;;8.40;99.90;;;;;;5055131;28;20477;-77
2022/11/05 07:58:28;;;;;;;21.53;16.23;;;8.40;99.90;;;;;;5052328;28;20476;-76
2022/11/05 08:00:57;;;;;;;27.17;15.67;;;8.40;99.90;;;;;;5048474;28;20950;-76
2022/11/05 08:03:23;;;;;;;15.70;12.97;;;8.40;99.90;;;;;;5056263;28;20485;-78
2022/11/05 08:05:50;;;;;;;17.00;12.93;;;8.40;99.90;;;;;;5040811;28;20499;-77
2022/11/05 08:08:18;;;;;;;19.17;13.37;;;8.50;99.90;;;;;;5058060;28;20454;-77
2022/11/05 08:10:46;;;;;;;18.33;13.30;;;8.50;99.90;;;;;;5053202;28;20488;-77
2022/11/05 08:13:13;;;;;;;17.40;12.70;;;8.60;99.90;;;;;;5057469;28;20446;-78
2022/11/05 08:15:41;;;;;;;21.57;13.20;;;8.50;99.90;;;;;;5047704;28;20543;-78
2022/11/05 08:18:14;;;;;;;18.97;12.40;;;8.60;99.90;;;;;;5043967;28;20528;-78
2022/11/05 08:20:42;;;;;;;15.90;12.00;;;8.70;99.90;;;;;;5058277;28;20572;-77
2022/11/05 08:23:09;;;;;;;20.77;12.50;;;8.80;99.90;;;;;;5051395;28;20488;-78
2022/11/05 08:25:36;;;;;;;17.47;12.03;;;8.80;99.90;;;;;;5052665;28;20547;-77
2022/11/05 08:28:06;;;;;;;21.70;13.23;;;8.80;99.90;;;;;;5037389;28;20462;-77
2022/11/05 08:30:34;;;;;;;19.07;12.47;;;8.90;99.90;;;;;;5032847;28;20475;-78
2022/11/05 08:33:03;;;;;;;14.13;12.40;;;8.90;99.90;;;;;;5047410;28;20453;-78
2022/11/05 08:35:31;;;;;;;13.07;10.00;;;8.90;99.90;;;;;;5053472;28;20459;-77
2022/11/05 08:37:59;;;;;;;14.87;11.07;;;9.00;99.90;;;;;;5057248;28;20457;-76
2022/11/05 08:40:26;;;;;;;17.40;11.30;;;9.10;99.90;;;;;;5052875;28;20468;-77
2022/11/05 08:42:56;;;;;;;13.70;10.57;;;9.10;99.90;;;;;;5040915;28;20486;-76
2022/11/05 08:45:23;;;;;;;14.80;10.83;;;9.10;99.90;;;;;;5032514;28;20880;-76
2022/11/05 08:47:50;;;;;;;12.10;9.47;;;9.10;99.90;;;;;;5040541;28;20984;-77
2022/11/05 08:50:17;;;;;;;13.30;10.47;;;9.30;99.90;;;;;;5052392;28;20841;-77
2022/11/05 08:52:45;;;;;;;11.97;9.57;;;9.30;99.90;;;;;;5046359;28;20536;-76
2022/11/05 08:55:12;;;;;;;15.10;9.40;;;9.30;99.90;;;;;;5046076;28;20947;-77
2022/11/05 08:57:39;;;;;;;14.50;9.43;;;9.30;99.90;;;;;;5052295;28;20479;-75
2022/11/05 09:00:07;;;;;;;12.93;8.80;;;9.40;99.90;;;;;;5050848;28;20480;-75
2022/11/05 09:02:34;;;;;;;12.47;8.50;;;9.40;99.90;;;;;;5052590;28;21115;-77
2022/11/05 09:05:01;;;;;;;15.77;8.60;;;9.50;99.90;;;;;;5051618;28;20536;-77
2022/11/05 09:07:27;;;;;;;10.37;7.07;;;9.50;99.90;;;;;;5055058;28;20544;-77
2022/11/05 09:09:56;;;;;;;10.73;7.07;;;9.60;99.90;;;;;;5051424;28;20463;-77
2022/11/05 09:12:23;;;;;;;11.13;8.37;;;9.60;99.90;;;;;;5052582;28;20868;-77
2022/11/05 09:14:49;;;;;;;14.00;8.83;;;9.70;99.90;;;;;;5051945;28;20461;-77
2022/11/05 09:17:17;;;;;;;13.57;8.70;;;9.70;99.90;;;;;;5052209;28;20450;-77
2022/11/05 09:19:44;;;;;;;10.83;7.97;;;9.70;99.90;;;;;;5050006;28;20845;-75
2022/11/05 09:22:12;;;;;;;9.23;6.87;;;9.80;99.90;;;;;;5043592;28;20460;-76
2022/11/05 09:24:39;;;;;;;8.90;7.60;;;10.00;99.90;;;;;;5049688;28;21255;-77
2022/11/05 09:27:10;;;;;;;9.37;7.27;;;10.00;99.90;;;;;;5052045;28;20458;-75
2022/11/05 09:29:37;;;;;;;9.93;7.00;;;10.00;99.90;;;;;;5049436;28;21102;-77
2022/11/05 09:32:07;;;;;;;8.67;6.70;;;10.00;99.90;;;;;;5032897;28;20536;-77
2022/11/05 09:34:34;;;;;;;14.03;7.80;;;10.10;99.90;;;;;;5033017;28;20534;-77
2022/11/05 09:37:01;;;;;;;13.00;6.10;;;10.20;99.90;;;;;;5044753;28;20477;-77
2022/11/05 09:39:28;;;;;;;14.20;6.40;;;10.30;99.90;;;;;;5053805;28;20473;-78
2022/11/05 09:42:03;;;;;;;17.67;6.70;;;10.30;99.90;;;;;;5034580;28;21231;-76
2022/11/05 09:44:46;;;;;;;9.10;6.60;;;10.30;99.90;;;;;;5032547;28;20831;-75
2022/11/05 09:47:19;;;;;;;9.60;6.30;;;10.40;99.90;;;;;;5033823;28;20444;-77
2022/11/05 09:49:49;;;;;;;11.13;6.13;;;10.50;99.90;;;;;;5034591;28;20470;-77
2022/11/05 09:52:21;;;;;;;9.20;6.13;;;10.40;99.90;;;;;;5037911;28;20831;-75
2022/11/05 09:54:49;;;;;;;8.70;5.70;;;10.50;99.90;;;;;;5038443;28;20894;-78
2022/11/05 09:57:20;;;;;;;8.63;5.20;;;10.50;99.90;;;;;;5059967;28;20502;-78
2022/11/05 09:59:51;;;;;;;11.37;5.77;;;10.60;99.90;;;;;;5051765;28;20567;-78
2022/11/05 10:02:21;;;;;;;9.07;5.50;;;10.60;99.90;;;;;;5041142;28;20498;-78
2022/11/05 10:04:52;;;;;;;14.97;5.57;;;10.70;99.90;;;;;;5047418;28;20481;-78
2022/11/05 10:07:23;;;;;;;12.03;6.53;;;10.80;99.90;;;;;;5054664;28;20963;-77
2022/11/05 10:09:55;;;;;;;8.63;5.80;;;10.90;99.90;;;;;;5048997;28;20472;-78
2022/11/05 10:12:31;;;;;;;7.23;4.97;;;10.90;99.90;;;;;;5040493;28;20464;-78
2022/11/05 10:15:07;;;;;;;8.13;5.40;;;11.00;99.90;;;;;;5049794;28;20465;-79
2022/11/05 10:17:36;;;;;;;10.90;5.57;;;11.10;99.90;;;;;;5058177;28;20537;-78
2022/11/05 10:20:10;;;;;;;9.10;4.23;;;11.20;99.90;;;;;;5058274;28;20532;-79
2022/11/05 10:22:38;;;;;;;8.00;5.80;;;11.30;99.90;;;;;;5061080;28;20439;-78
2022/11/05 10:25:17;;;;;;;8.90;4.20;;;11.40;99.90;;;;;;5058444;28;20565;-79
2022/11/05 10:27:47;;;;;;;6.47;4.50;;;11.50;99.90;;;;;;5056893;28;20456;-78
2022/11/05 10:30:16;;;;;;;11.10;5.63;;;11.70;99.90;;;;;;5058422;28;21070;-78
2022/11/05 10:32:44;;;;;;;10.27;5.17;;;11.80;99.90;;;;;;5058033;28;20883;-78
2022/11/05 10:35:17;;;;;;;13.10;4.67;;;11.90;99.90;;;;;;5048613;28;20497;-78
2022/11/05 10:37:45;;;;;;;9.07;4.40;;;12.10;99.90;;;;;;5047189;28;20527;-78
2022/11/05 10:40:19;;;;;;;6.10;4.80;;;12.20;99.90;;;;;;5058977;28;20475;-78
2022/11/05 10:42:56;;;;;;;10.70;4.33;;;12.30;99.90;;;;;;5050451;28;20542;-77
2022/11/05 10:45:34;;;;;;;11.67;4.10;;;12.40;99.90;;;;;;5051752;28;20453;-77
2022/11/05 10:48:16;;;;;;;5.73;3.50;;;12.80;99.90;;;;;;5050056;28;20933;-78
2022/11/05 10:50:44;;;;;;;5.57;3.90;;;13.30;99.90;;;;;;5038789;28;20474;-78
2022/11/05 10:53:15;;;;;;;6.60;3.37;;;13.90;99.90;;;;;;5054725;28;20465;-78
2022/11/05 10:55:44;;;;;;;6.17;3.57;;;13.80;99.90;;;;;;5058873;28;20509;-79
2022/11/05 10:58:19;;;;;;;6.00;3.13;;;13.50;99.90;;;;;;5047025;28;20460;-79
2022/11/05 11:01:02;;;;;;;7.53;3.80;;;13.40;99.90;;;;;;5041891;22;21139;-83
2022/11/05 11:03:35;;;;;;;6.10;3.40;;;13.40;99.90;;;;;;5016859;28;21012;-84
2022/11/05 11:06:06;;;;;;;7.67;3.63;;;13.60;99.90;;;;;;5016380;28;20524;-83
2022/11/05 11:08:36;;;;;;;8.35;4.68;;;13.90;99.90;;;;;;5015558;28;20429;-83
2022/11/05 11:11:06;;;;;;;6.93;3.50;;;14.40;99.90;;;;;;5017777;28;20731;-85
2022/11/05 11:13:50;;;;;;;6.90;3.40;;;15.40;99.90;;;;;;5015540;28;20500;-84
2022/11/05 11:16:23;;;;;;;8.33;4.43;;;16.10;99.90;;;;;;5026094;28;20461;-85
2022/11/05 11:18:54;;;;;;;8.23;4.00;;;16.40;99.90;;;;;;5013804;28;20465;-84
2022/11/05 11:21:25;;;;;;;6.50;3.73;;;16.40;99.90;;;;;;5020532;28;20460;-84
2022/11/05 11:23:56;;;;;;;7.70;3.40;;;16.30;99.90;;;;;;5021840;28;20492;-85
2022/11/05 11:26:25;;;;;;;8.47;4.37;;;15.90;99.90;;;;;;5030484;28;20540;-84
2022/11/05 11:28:56;;;;;;;10.73;3.93;;;15.50;99.90;;;;;;5034487;28;20441;-84
2022/11/05 11:31:27;;;;;;;5.83;3.57;;;15.60;99.90;;;;;;5019092;28;20456;-86
2022/11/05 11:33:59;;;;;;;8.90;3.60;;;15.50;99.90;;;;;;5018698;28;20548;-85
2022/11/05 11:36:32;;;;;;;8.60;4.10;;;15.40;99.90;;;;;;5017939;28;20454;-85
2022/11/05 11:39:00;;;;;;;6.30;3.63;;;14.80;99.90;;;;;;5018419;28;20545;-84
2022/11/05 11:41:31;;;;;;;7.70;3.90;;;15.00;99.90;;;;;;5019617;28;20452;-84
2022/11/05 11:44:04;;;;;;;7.17;3.50;;;15.00;99.90;;;;;;5021728;28;20952;-86
2022/11/05 11:46:35;;;;;;;7.40;5.07;;;14.80;99.90;;;;;;5022411;28;20529;-85
2022/11/05 11:49:02;;;;;;;10.60;5.27;;;14.70;99.90;;;;;;5020878;28;20985;-86
2022/11/05 11:51:36;;;;;;;7.63;3.90;;;15.10;99.90;;;;;;5021512;28;20469;-84
2022/11/05 11:54:04;;;;;;;7.23;4.10;;;15.60;99.90;;;;;;5021200;28;21020;-86
2022/11/05 11:56:43;;;;;;;6.00;3.90;;;16.00;99.90;;;;;;5021971;28;20544;-85
2022/11/05 11:59:20;;;;;;;8.00;4.20;;;16.80;99.90;;;;;;5018500;28;20448;-85
2022/11/05 12:02:13;;;;;;;7.43;3.30;;;17.70;99.90;;;;;;5030243;28;20480;-85
2022/11/05 12:04:56;;;;;;;6.20;3.93;;;18.40;99.90;;;;;;5020457;28;20547;-81
2022/11/05 12:07:35;;;;;;;9.60;4.10;;;18.70;99.90;;;;;;5019658;28;20526;-86
2022/11/05 12:10:18;;;;;;;8.00;4.37;;;18.20;99.90;;;;;;5018580;28;20498;-85
2022/11/05 12:12:53;;;;;;;8.83;4.50;;;17.70;99.90;;;;;;5018179;28;20452;-86
2022/11/05 12:15:29;;;;;;;9.50;5.73;;;17.00;99.90;;;;;;5019195;28;20457;-84
2022/11/05 12:18:02;;;;;;;8.00;3.63;;;16.30;99.90;;;;;;5018207;28;20528;-86
2022/11/05 12:20:49;;;;;;;6.70;4.10;;;16.10;99.90;;;;;;5019186;28;20480;-86
2022/11/05 12:23:36;;;;;;;6.33;4.07;;;15.80;99.90;;;;;;5017946;28;20473;-84
2022/11/05 12:26:12;;;;;;;7.43;4.07;;;15.50;99.90;;;;;;5018234;28;20502;-85
2022/11/05 12:29:02;;;;;;;5.50;4.20;;;15.30;99.90;;;;;;5017510;28;20445;-85
2022/11/05 12:31:34;;;;;;;8.77;4.40;;;15.00;99.90;;;;;;5017740;28;20455;-84
2022/11/05 12:34:16;;;;;;;5.10;4.00;;;14.90;99.90;;;;;;5015640;28;20517;-84
2022/11/05 12:36:59;;;;;;;10.27;4.57;;;14.80;99.90;;;;;;5017529;28;20434;-84
2022/11/05 12:39:42;;;;;;;6.20;4.50;;;14.70;99.90;;;;;;5016970;28;20565;-85
2022/11/05 12:42:21;;;;;;;7.70;4.30;;;14.50;99.90;;;;;;5016503;28;20439;-85
2022/11/05 12:44:57;;;;;;;8.93;5.50;;;14.30;99.90;;;;;;5013914;28;20580;-86
2022/11/05 12:47:40;;;;;;;7.07;4.23;;;14.30;99.90;;;;;;5017049;28;20943;-85
2022/11/05 12:50:20;;;;;;;7.67;3.83;;;14.00;99.90;;;;;;5015235;28;20474;-85
2022/11/05 12:53:27;;;;;;;11.37;6.00;;;14.10;99.90;;;;;;5019614;28;20441;-85
2022/11/05 12:55:58;;;;;;;13.90;5.00;;;13.90;99.90;;;;;;4970792;28;20517;-85
2022/11/05 12:58:30;;;;;;;6.67;4.60;;;13.80;99.90;;;;;;5016846;28;20529;-85
2022/11/05 13:01:01;;;;;;;9.93;5.50;;;13.90;99.90;;;;;;5017158;28;21088;-85
2022/11/05 13:03:38;;;;;;;7.37;4.30;;;13.70;99.90;;;;;;5016424;28;20894;-86
2022/11/05 13:06:11;;;;;;;8.10;5.50;;;13.70;99.90;;;;;;5016884;28;20519;-85
2022/11/05 13:08:42;;;;;;;10.03;4.57;;;13.60;99.90;;;;;;5015875;28;20452;-85
2022/11/05 13:11:18;;;;;;;8.60;4.30;;;13.50;99.90;;;;;;5018048;28;20515;-85
2022/11/05 13:13:53;;;;;;;6.93;3.57;;;13.50;99.90;;;;;;5017842;28;20534;-85
2022/11/05 13:16:27;;;;;;;6.33;4.13;;;13.60;99.90;;;;;;5016415;28;20534;-86
2022/11/05 13:18:59;;;;;;;8.57;5.13;;;13.50;99.90;;;;;;5016294;28;20442;-84
2022/11/05 13:21:28;;;;;;;7.57;4.40;;;13.60;99.90;;;;;;5016884;28;20488;-86
2022/11/05 13:24:01;;;;;;;6.70;4.50;;;13.30;99.90;;;;;;5016668;28;20465;-85
2022/11/05 13:26:35;;;;;;;8.03;4.10;;;13.30;99.90;;;;;;5023157;28;20528;-85
2022/11/05 13:29:06;;;;;;;8.50;4.10;;;13.40;99.90;;;;;;5020966;28;20820;-85
2022/11/05 13:31:37;;;;;;;7.10;3.40;;;13.30;99.90;;;;;;5019801;28;21004;-86
2022/11/05 13:34:09;;;;;;;4.67;3.23;;;13.20;99.90;;;;;;5021122;28;20437;-84
2022/11/05 13:39:35;;;;;;;8.03;3.87;;;13.40;99.90;;;;;;5033114;28;20515;-84
2022/11/05 13:42:30;;;;;;;8.73;4.00;;;13.40;99.90;;;;;;5019971;28;20460;-85
2022/11/05 13:45:19;;;;;;;7.33;3.60;;;13.20;99.90;;;;;;5024639;28;20575;-85
2022/11/05 13:48:16;;;;;;;6.27;2.83;;;13.20;99.90;;;;;;5017944;28;20477;-85